createdAt,value
2018-06-28T00:00:19.044Z,2.52
2018-06-28T00:02:47.147Z,2.58
2018-06-28T00:05:15.538Z,2.70
2018-06-28T00:07:43.960Z,2.47
2018-06-28T00:10:12.072Z,2.35
2018-06-28T00:12:40.453Z,2.50
2018-06-28T00:15:08.857Z,2.40
2018-06-28T00:17:37.248Z,2.50
2018-06-28T00:20:05.718Z,2.30
2018-06-28T00:22:34.113Z,2.50
2018-06-28T00:25:02.507Z,2.50
2018-06-28T00:27:30.590Z,2.40
2018-06-28T00:29:58.995Z,2.30
2018-06-28T00:32:27.450Z,2.70
2018-06-28T00:34:55.848Z,2.50
2018-06-28T00:37:24.270Z,2.40
2018-06-28T00:39:52.668Z,2.90
2018-06-28T00:42:21.079Z,2.65
2018-06-28T00:44:49.480Z,2.67
2018-06-28T00:47:17.901Z,2.40
2018-06-28T00:49:45.989Z,2.53
2018-06-28T00:52:14.368Z,2.42
2018-06-28T00:54:42.444Z,2.80
2018-06-28T00:57:10.882Z,2.80
2018-06-28T00:59:39.288Z,2.65
2018-06-28T01:02:07.653Z,2.70
2018-06-28T01:04:36.119Z,2.90
2018-06-28T01:07:04.848Z,2.60
2018-06-28T01:09:33.241Z,2.65
2018-06-28T01:12:01.648Z,2.58
2018-06-28T01:14:30.077Z,2.42
2018-06-28T01:16:58.502Z,2.70
2018-06-28T01:19:26.930Z,2.87
2018-06-28T01:21:55.316Z,3.08
2018-06-28T01:24:23.763Z,3.00
2018-06-28T01:26:52.161Z,2.80
2018-06-28T01:29:20.580Z,3.00
2018-06-28T01:31:49.050Z,2.90
2018-06-28T01:34:17.131Z,2.67
2018-06-28T01:36:45.534Z,2.75
2018-06-28T01:39:13.935Z,3.10
2018-06-28T01:41:53.655Z,3.10
2018-06-28T01:44:22.164Z,3.20
2018-06-28T01:46:50.678Z,3.05
2018-06-28T01:49:19.025Z,4.00
2018-06-28T01:51:47.425Z,3.73
2018-06-28T01:54:15.822Z,4.10
2018-06-28T01:56:44.229Z,3.70
2018-06-28T01:59:12.655Z,3.80
2018-06-28T02:01:41.074Z,3.85
2018-06-28T02:04:09.433Z,3.40
2018-06-28T02:06:37.847Z,3.52
2018-06-28T02:09:08.523Z,3.42
2018-06-28T02:11:37.060Z,3.33
2018-06-28T02:14:05.889Z,3.65
2018-06-28T02:16:34.388Z,4.10
2018-06-28T02:19:02.830Z,3.98
2018-06-28T02:21:31.263Z,3.60
2018-06-28T02:23:59.405Z,4.00
2018-06-28T02:26:27.795Z,3.30
2018-06-28T02:28:56.188Z,3.70
2018-06-28T02:31:24.293Z,3.65
2018-06-28T02:33:52.704Z,3.42
2018-06-28T02:36:21.114Z,3.55
2018-06-28T02:38:49.265Z,3.80
2018-06-28T02:41:17.629Z,3.80
2018-06-28T02:43:46.098Z,4.20
2018-06-28T02:46:14.489Z,3.70
2018-06-28T02:48:42.875Z,3.90
2018-06-28T02:51:11.249Z,3.90
2018-06-28T02:53:39.616Z,4.33
2018-06-28T02:56:08.031Z,3.70
2018-06-28T02:58:36.391Z,4.10
2018-06-28T03:01:04.802Z,3.70
2018-06-28T03:03:32.911Z,4.20
2018-06-28T03:06:01.338Z,4.30
2018-06-28T03:08:29.783Z,4.10
2018-06-28T03:10:58.167Z,4.30
2018-06-28T03:13:26.666Z,4.28
2018-06-28T03:15:55.112Z,4.62
2018-06-28T03:18:23.505Z,4.10
2018-06-28T03:20:51.915Z,4.80
2018-06-28T03:23:20.318Z,4.63
2018-06-28T03:25:48.744Z,5.10
2018-06-28T03:28:17.178Z,4.30
2018-06-28T03:30:45.353Z,4.37
2018-06-28T03:33:13.779Z,4.33
2018-06-28T03:35:42.183Z,4.67
2018-06-28T03:38:10.840Z,4.25
2018-06-28T03:40:39.206Z,4.70
2018-06-28T03:43:07.619Z,4.62
2018-06-28T03:45:36.156Z,4.10
2018-06-28T03:48:04.788Z,4.05
2018-06-28T03:50:33.204Z,3.90
2018-06-28T03:53:01.586Z,3.73
2018-06-28T03:55:29.974Z,3.80
2018-06-28T03:57:59.092Z,3.55
2018-06-28T04:00:27.520Z,3.70
2018-06-28T04:02:55.898Z,3.80
2018-06-28T04:05:24.297Z,3.80
2018-06-28T04:07:52.708Z,3.67
2018-06-28T04:10:21.100Z,3.80
2018-06-28T04:12:49.517Z,3.80
2018-06-28T04:15:17.874Z,3.58
2018-06-28T04:17:46.298Z,4.00
2018-06-28T04:20:14.779Z,4.17
2018-06-28T04:22:42.890Z,5.22
2018-06-28T04:25:11.290Z,4.15
2018-06-28T04:27:39.707Z,4.08
2018-06-28T04:30:08.136Z,3.90
2018-06-28T04:32:36.579Z,3.90
2018-06-28T04:35:05.006Z,3.90
2018-06-28T04:37:33.385Z,3.60
2018-06-28T04:40:01.773Z,3.22
2018-06-28T04:42:30.133Z,3.60
2018-06-28T04:44:58.542Z,3.50
2018-06-28T04:47:26.616Z,3.60
2018-06-28T04:49:54.676Z,3.40
2018-06-28T04:52:23.070Z,3.70
2018-06-28T04:54:51.284Z,3.40
2018-06-28T04:57:19.659Z,3.50
2018-06-28T04:59:48.060Z,3.65
2018-06-28T05:02:16.667Z,3.20
2018-06-28T05:04:45.020Z,3.30
2018-06-28T05:07:13.485Z,3.40
2018-06-28T05:09:41.873Z,3.20
2018-06-28T05:12:10.241Z,3.40
2018-06-28T05:14:38.589Z,3.20
2018-06-28T05:17:07.071Z,3.92
2018-06-28T05:19:35.453Z,4.10
2018-06-28T05:22:03.885Z,3.75
2018-06-28T05:24:32.261Z,3.27
2018-06-28T05:27:00.665Z,3.30
2018-06-28T05:29:29.133Z,3.50
2018-06-28T05:31:57.532Z,3.53
2018-06-28T05:34:25.957Z,3.45
2018-06-28T05:36:54.360Z,3.15
2018-06-28T05:39:22.788Z,3.70
2018-06-28T05:41:51.196Z,4.00
2018-06-28T05:44:19.620Z,3.90
2018-06-28T05:46:47.700Z,3.80
2018-06-28T05:49:15.818Z,3.83
2018-06-28T05:51:44.335Z,4.00
2018-06-28T05:54:12.980Z,4.05
2018-06-28T05:56:41.439Z,4.40
2018-06-28T05:59:09.818Z,4.00
2018-06-28T06:01:38.203Z,4.20
2018-06-28T06:04:06.609Z,4.50
2018-06-28T06:06:35.032Z,4.60
2018-06-28T06:09:03.914Z,4.85
2018-06-28T06:11:32.699Z,4.83
2018-06-28T06:14:01.054Z,4.67
2018-06-28T06:16:29.444Z,4.42
2018-06-28T06:18:57.862Z,4.70
2018-06-28T06:21:25.990Z,4.55
2018-06-28T06:23:54.466Z,4.47
2018-06-28T06:26:23.038Z,4.33
2018-06-28T06:28:51.439Z,4.70
2018-06-28T06:31:19.959Z,4.50
2018-06-28T06:33:48.359Z,4.12
2018-06-28T06:36:16.830Z,4.10
2018-06-28T06:38:45.244Z,4.00
2018-06-28T06:41:13.666Z,4.00
2018-06-28T06:43:41.761Z,4.00
2018-06-28T06:46:10.191Z,3.65
2018-06-28T06:48:38.627Z,4.00
2018-06-28T06:51:07.077Z,3.83
2018-06-28T06:53:35.453Z,3.90
2018-06-28T06:56:03.928Z,3.60
2018-06-28T06:58:32.308Z,4.00
2018-06-28T07:01:00.720Z,3.92
2018-06-28T07:03:29.135Z,3.80
2018-06-28T07:05:57.587Z,3.90
2018-06-28T07:08:26.037Z,4.20
2018-06-28T07:10:54.466Z,3.70
2018-06-28T07:13:22.907Z,3.77
2018-06-28T07:15:51.339Z,3.62
2018-06-28T07:18:19.769Z,4.12
2018-06-28T07:20:48.194Z,3.60
2018-06-28T07:23:16.681Z,3.60
2018-06-28T07:25:45.196Z,4.20
2018-06-28T07:28:13.584Z,3.58
2018-06-28T07:30:42.224Z,3.60
2018-06-28T07:33:10.670Z,3.50
2018-06-28T07:35:39.075Z,3.72
2018-06-28T07:38:07.555Z,3.70
2018-06-28T07:40:35.611Z,3.37
2018-06-28T07:43:04.117Z,3.80
2018-06-28T07:45:32.509Z,3.00
2018-06-28T07:48:00.920Z,3.67
2018-06-28T07:50:29.415Z,3.20
2018-06-28T07:52:57.828Z,3.05
2018-06-28T07:55:26.329Z,2.70
2018-06-28T07:57:54.666Z,2.98
2018-06-28T08:00:23.236Z,2.90
2018-06-28T08:02:51.453Z,3.30
2018-06-28T08:05:19.871Z,2.70
2018-06-28T08:07:47.972Z,2.90
2018-06-28T08:10:16.376Z,2.83
2018-06-28T08:12:44.747Z,2.90
2018-06-28T08:15:13.174Z,2.90
2018-06-28T08:17:41.602Z,2.60
2018-06-28T08:20:10.007Z,3.12
2018-06-28T08:22:38.443Z,2.80
2018-06-28T08:25:06.902Z,2.45
2018-06-28T08:27:35.216Z,2.90
2018-06-28T08:30:03.657Z,2.70
2018-06-28T08:32:32.077Z,2.50
2018-06-28T08:35:00.477Z,2.55
2018-06-28T08:37:28.862Z,2.40
2018-06-28T08:39:57.234Z,2.35
2018-06-28T08:42:25.619Z,2.70
2018-06-28T08:44:53.975Z,2.30
2018-06-28T08:47:22.428Z,2.47
2018-06-28T08:49:50.863Z,2.47
2018-06-28T08:52:19.308Z,2.53
2018-06-28T08:54:47.678Z,2.40
2018-06-28T08:57:16.089Z,2.67
2018-06-28T08:59:44.437Z,2.47
2018-06-28T09:02:12.836Z,2.50
2018-06-28T09:04:41.229Z,2.67
2018-06-28T09:07:09.638Z,3.90
2018-06-28T09:09:38.061Z,2.10
2018-06-28T09:12:06.437Z,2.00
2018-06-28T09:14:34.793Z,2.10
2018-06-28T09:17:03.201Z,2.37
2018-06-28T09:19:31.592Z,2.50
2018-06-28T09:21:59.982Z,2.60
2018-06-28T09:24:28.372Z,2.22
2018-06-28T09:26:56.809Z,2.30
2018-06-28T09:29:25.188Z,2.30
2018-06-28T09:31:53.574Z,2.10
2018-06-28T09:34:22.005Z,2.40
2018-06-28T09:36:50.395Z,2.50
2018-06-28T09:39:18.481Z,2.70
2018-06-28T09:41:46.867Z,2.75
2018-06-28T09:44:15.291Z,2.72
2018-06-28T09:46:43.727Z,2.40
2018-06-28T09:49:12.122Z,2.37
2018-06-28T09:51:40.515Z,2.35
2018-06-28T09:54:08.940Z,2.42
2018-06-28T09:56:37.318Z,2.62
2018-06-28T09:59:05.715Z,2.60
2018-06-28T10:01:34.073Z,2.60
2018-06-28T10:04:02.481Z,2.70
2018-06-28T10:06:30.877Z,2.57
2018-06-28T10:08:59.365Z,2.80
2018-06-28T10:11:27.776Z,2.60
2018-06-28T10:13:56.235Z,2.40
2018-06-28T10:16:24.715Z,2.40
2018-06-28T10:18:53.132Z,2.60
2018-06-28T10:21:21.205Z,2.47
2018-06-28T10:23:49.296Z,2.30
2018-06-28T10:26:17.695Z,2.47
2018-06-28T10:28:46.127Z,2.77
2018-06-28T10:31:14.516Z,2.57
2018-06-28T10:33:43.069Z,2.40
2018-06-28T10:36:11.588Z,2.50
2018-06-28T10:38:40.060Z,2.37
2018-06-28T10:41:08.161Z,2.43
2018-06-28T10:43:36.711Z,2.60
2018-06-28T10:46:04.876Z,2.70
2018-06-28T10:48:33.266Z,2.80
2018-06-28T10:51:01.713Z,2.60
2018-06-28T10:53:30.094Z,2.52
2018-06-28T10:55:58.470Z,2.30
2018-06-28T10:58:26.883Z,2.40
2018-06-28T11:00:54.980Z,2.50
2018-06-28T11:03:23.497Z,2.40
2018-06-28T11:05:51.871Z,2.37
2018-06-28T11:08:20.345Z,3.27
2018-06-28T11:10:48.772Z,2.00
2018-06-28T11:13:17.400Z,2.12
2018-06-28T11:15:45.864Z,2.15
2018-06-28T11:18:14.241Z,1.90
2018-06-28T11:20:42.682Z,2.00
2018-06-28T11:23:11.089Z,2.10
2018-06-28T11:25:39.487Z,2.00
2018-06-28T11:28:07.899Z,1.90
2018-06-28T11:30:36.318Z,1.90
2018-06-28T11:33:04.771Z,1.70
2018-06-28T11:35:33.149Z,1.90
2018-06-28T11:38:01.546Z,1.80
2018-06-28T11:40:29.959Z,1.80
2018-06-28T11:42:58.390Z,2.05
2018-06-28T11:45:26.803Z,1.92
2018-06-28T11:47:55.176Z,1.85
2018-06-28T11:50:23.615Z,2.00
2018-06-28T11:52:52.014Z,1.90
2018-06-28T11:55:20.404Z,1.77
2018-06-28T11:57:48.610Z,2.20
2018-06-28T12:00:17.361Z,1.57
2018-06-28T12:02:46.471Z,1.70
2018-06-28T12:05:14.792Z,1.98
2018-06-28T12:07:43.294Z,2.20
2018-06-28T12:10:11.698Z,1.90
2018-06-28T12:15:14.806Z,1.40
2018-06-28T12:17:42.883Z,2.00
2018-06-28T12:20:11.295Z,2.05
2018-06-28T12:22:39.696Z,1.80
2018-06-28T12:25:08.148Z,1.75
2018-06-28T12:27:36.504Z,1.80
2018-06-28T12:30:04.612Z,2.10
2018-06-28T12:32:33.011Z,1.60
2018-06-28T12:35:01.398Z,1.50
2018-06-28T12:37:29.805Z,1.87
2018-06-28T12:39:58.169Z,1.98
2018-06-28T12:42:26.569Z,1.90
2018-06-28T12:44:55.174Z,1.47
2018-06-28T12:47:37.455Z,1.65
2018-06-28T12:50:06.148Z,1.60
2018-06-28T12:52:43.488Z,1.62
2018-06-28T12:55:13.120Z,1.60
2018-06-28T12:57:41.540Z,1.50
2018-06-28T13:00:10.064Z,1.60
2018-06-28T13:02:38.550Z,1.32
2018-06-28T13:05:07.229Z,1.60
2018-06-28T13:07:35.683Z,1.60
2018-06-28T13:10:04.919Z,1.60
2018-06-28T13:12:33.380Z,1.70
2018-06-28T13:15:01.800Z,1.70
2018-06-28T13:17:31.115Z,1.50
2018-06-28T13:19:59.618Z,1.90
2018-06-28T13:22:28.035Z,1.80
2018-06-28T13:24:56.475Z,1.85
2018-06-28T13:27:25.093Z,1.65
2018-06-28T13:29:53.580Z,1.77
2018-06-28T13:32:21.990Z,2.08
2018-06-28T13:34:50.134Z,2.10
2018-06-28T13:37:18.574Z,2.00
2018-06-28T13:39:47.053Z,1.90
2018-06-28T13:42:15.501Z,1.70
2018-06-28T13:44:43.867Z,2.00
2018-06-28T13:47:12.289Z,1.87
2018-06-28T13:49:40.709Z,1.50
2018-06-28T13:52:09.160Z,1.70
2018-06-28T13:54:37.576Z,1.70
2018-06-28T13:57:06.030Z,1.60
2018-06-28T13:59:34.437Z,1.70
2018-06-28T14:02:02.901Z,1.77
2018-06-28T14:04:31.300Z,1.40
2018-06-28T14:06:59.701Z,1.47
2018-06-28T14:09:28.190Z,1.77
2018-06-28T14:11:56.495Z,1.80
2018-06-28T14:14:25.019Z,1.50
2018-06-28T14:16:53.421Z,1.65
2018-06-28T14:19:21.808Z,1.50
2018-06-28T14:21:50.225Z,1.50
2018-06-28T14:24:18.609Z,1.45
2018-06-28T14:26:47.005Z,1.40
2018-06-28T14:29:15.390Z,1.40
2018-06-28T14:31:43.793Z,1.20
2018-06-28T14:34:11.923Z,1.60
2018-06-28T14:36:40.331Z,1.50
2018-06-28T14:39:08.892Z,1.45
2018-06-28T14:41:37.307Z,1.80
2018-06-28T14:44:05.770Z,1.45
2018-06-28T14:46:34.247Z,1.55
2018-06-28T14:49:02.647Z,1.30
2018-06-28T14:51:31.449Z,1.30
2018-06-28T14:53:59.841Z,1.50
2018-06-28T14:56:28.308Z,1.30
2018-06-28T14:58:56.735Z,1.15
2018-06-28T15:01:25.247Z,1.47
2018-06-28T15:03:53.628Z,1.50
2018-06-28T15:06:22.028Z,1.40
2018-06-28T15:08:50.539Z,1.40
2018-06-28T15:11:18.996Z,1.20
2018-06-28T15:13:47.432Z,1.40
2018-06-28T15:16:15.833Z,1.40
2018-06-28T15:18:44.138Z,1.20
2018-06-28T15:21:12.588Z,1.40
2018-06-28T15:23:41.072Z,1.60
2018-06-28T15:26:09.241Z,1.20
2018-06-28T15:28:37.395Z,1.47
2018-06-28T15:31:05.837Z,1.30
2018-06-28T15:33:34.252Z,1.45
2018-06-28T15:36:07.266Z,1.60
2018-06-28T15:38:35.739Z,1.60
2018-06-28T15:41:04.118Z,1.50
2018-06-28T15:43:32.579Z,3.37
2018-06-28T15:46:01.071Z,1.80
2018-06-28T15:48:29.528Z,1.67
2018-06-28T15:50:57.978Z,1.60
2018-06-28T15:53:26.420Z,1.50
2018-06-28T15:55:54.870Z,1.60
2018-06-28T15:58:22.985Z,1.90
2018-06-28T16:00:51.422Z,1.65
2018-06-28T16:03:19.825Z,1.80
2018-06-28T16:05:48.568Z,2.10
2018-06-28T16:08:16.982Z,1.60
2018-06-28T16:10:45.399Z,1.60
2018-06-28T16:13:13.933Z,2.00
2018-06-28T16:15:42.031Z,1.90
2018-06-28T16:18:10.462Z,1.80
2018-06-28T16:20:38.867Z,2.35
2018-06-28T16:23:07.297Z,1.90
2018-06-28T16:25:35.748Z,1.80
2018-06-28T16:28:04.538Z,1.72
2018-06-28T16:30:32.928Z,2.20
2018-06-28T16:33:01.281Z,1.35
2018-06-28T16:35:29.724Z,1.60
2018-06-28T16:37:58.101Z,1.70
2018-06-28T16:40:26.502Z,1.40
2018-06-28T16:42:54.916Z,1.77
2018-06-28T16:45:23.501Z,1.70
2018-06-28T16:47:51.896Z,1.70
2018-06-28T16:50:20.299Z,1.67
2018-06-28T16:52:48.722Z,1.60
2018-06-28T16:55:17.213Z,1.57
2018-06-28T16:57:45.744Z,1.50
2018-06-28T17:00:14.244Z,1.40
2018-06-28T17:02:42.331Z,1.65
2018-06-28T17:05:10.716Z,1.40
2018-06-28T17:07:39.416Z,2.00
2018-06-28T17:10:07.864Z,1.50
2018-06-28T17:12:36.073Z,1.40
2018-06-28T17:15:04.865Z,1.40
2018-06-28T17:17:33.678Z,1.50
2018-06-28T17:20:02.113Z,1.30
2018-06-28T17:22:31.119Z,1.45
2018-06-28T17:24:59.625Z,1.45
2018-06-28T17:27:28.056Z,1.47
2018-06-28T17:29:56.250Z,1.30
2018-06-28T17:32:24.635Z,1.70
2018-06-28T17:34:53.043Z,1.70
2018-06-28T17:37:21.539Z,1.40
2018-06-28T17:39:50.748Z,1.50
2018-06-28T17:42:19.178Z,1.30
2018-06-28T17:44:47.619Z,1.30
2018-06-28T17:47:15.715Z,1.40
2018-06-28T17:49:44.205Z,1.47
2018-06-28T17:52:12.612Z,1.50
2018-06-28T17:54:41.020Z,1.30
2018-06-28T17:57:09.716Z,1.90
2018-06-28T17:59:37.799Z,1.50
2018-06-28T18:02:06.230Z,1.40
2018-06-28T18:04:34.668Z,1.50
2018-06-28T18:07:03.069Z,1.27
2018-06-28T18:09:31.499Z,1.30
2018-06-28T18:11:59.587Z,1.57
2018-06-28T18:14:27.972Z,1.37
2018-06-28T18:16:56.420Z,1.42
2018-06-28T18:19:24.849Z,1.30
2018-06-28T18:21:53.632Z,1.42
2018-06-28T18:24:21.987Z,1.50
2018-06-28T18:26:50.448Z,1.40
2018-06-28T18:29:18.890Z,1.40
2018-06-28T18:31:47.349Z,1.27
2018-06-28T18:34:15.950Z,1.30
2018-06-28T18:36:44.436Z,1.10
2018-06-28T18:39:12.834Z,1.00
2018-06-28T18:41:41.279Z,1.30
2018-06-28T18:44:09.709Z,1.20
2018-06-28T18:46:38.101Z,1.32
2018-06-28T18:49:06.241Z,1.40
2018-06-28T18:51:34.689Z,1.10
2018-06-28T18:54:03.201Z,1.35
2018-06-28T18:56:31.763Z,1.27
2018-06-28T18:59:00.149Z,1.17
2018-06-28T19:01:28.584Z,1.20
2018-06-28T19:03:56.978Z,2.52
2018-06-28T19:06:25.432Z,1.40
2018-06-28T19:08:53.899Z,1.20
2018-06-28T19:11:22.320Z,1.30
2018-06-28T19:13:56.057Z,1.65
2018-06-28T19:16:29.684Z,1.30
2018-06-28T19:18:58.181Z,1.10
2018-06-28T19:21:31.999Z,1.20
2018-06-28T19:24:00.469Z,1.40
2018-06-28T19:26:28.580Z,1.30
2018-06-28T19:28:57.174Z,1.30
2018-06-28T19:31:30.963Z,1.20
2018-06-28T19:33:59.438Z,1.15
2018-06-28T19:36:27.917Z,1.30
2018-06-28T19:39:01.709Z,1.20
2018-06-28T19:41:35.563Z,1.63
2018-06-28T19:44:04.018Z,1.60
2018-06-28T19:46:32.447Z,1.70
2018-06-28T19:49:00.877Z,1.70
2018-06-28T19:51:34.716Z,1.50
2018-06-28T19:54:03.130Z,1.67
2018-06-28T19:56:31.515Z,1.80
2018-06-28T19:58:59.647Z,1.70
2018-06-28T20:01:33.604Z,1.60
2018-06-28T20:04:07.311Z,1.62
2018-06-28T20:06:35.433Z,1.80
2018-06-28T20:09:05.831Z,1.57
2018-06-28T20:11:34.244Z,1.80
2018-06-28T20:14:07.919Z,1.50
2018-06-28T20:16:41.801Z,1.40
2018-06-28T20:19:15.561Z,1.45
2018-06-28T20:21:43.934Z,1.30
2018-06-28T20:24:12.334Z,1.30
2018-06-28T20:27:50.153Z,1.30
2018-06-28T20:30:23.512Z,1.40
2018-06-28T20:32:57.275Z,1.30
2018-06-28T20:35:25.691Z,1.30
2018-06-28T20:37:54.105Z,1.40
2018-06-28T20:40:22.192Z,1.30
2018-06-28T20:42:50.325Z,1.20
2018-06-28T20:45:18.712Z,1.00
2018-06-28T20:47:47.148Z,1.27
2018-06-28T20:50:16.208Z,1.30
2018-06-28T20:52:44.275Z,1.20
2018-06-28T20:55:12.399Z,1.20
2018-06-28T20:57:40.827Z,1.23
2018-06-28T21:00:09.649Z,1.07
2018-06-28T21:02:38.415Z,1.20
2018-06-28T21:05:07.096Z,1.30
2018-06-28T21:07:35.365Z,1.27
2018-06-28T21:10:03.904Z,1.00
2018-06-28T21:12:32.237Z,1.00
2018-06-28T21:15:00.724Z,1.10
2018-06-28T21:17:28.820Z,1.10
2018-06-28T21:19:57.271Z,1.40
2018-06-28T21:22:25.342Z,1.30
2018-06-28T21:24:53.769Z,1.40
2018-06-28T21:27:22.146Z,1.10
2018-06-28T21:29:50.598Z,1.30
2018-06-28T21:32:18.997Z,1.40
2018-06-28T21:34:47.608Z,1.30
2018-06-28T21:37:15.973Z,1.20
2018-06-28T21:39:44.387Z,1.10
2018-06-28T21:42:12.482Z,1.32
2018-06-28T21:44:40.888Z,1.30
2018-06-28T21:47:09.316Z,1.42
2018-06-28T21:49:37.706Z,1.20
2018-06-28T21:52:06.118Z,1.55
2018-06-28T21:54:34.496Z,1.30
2018-06-28T21:57:02.893Z,1.52
2018-06-28T21:59:31.374Z,1.40
2018-06-28T22:01:59.815Z,1.15
2018-06-28T22:04:28.218Z,1.40
2018-06-28T22:06:56.615Z,1.32
2018-06-28T22:09:25.043Z,1.30
2018-06-28T22:11:53.441Z,1.60
2018-06-28T22:14:21.964Z,1.50
2018-06-28T22:16:50.242Z,1.55
2018-06-28T22:19:18.670Z,1.30
2018-06-28T22:21:46.803Z,1.50
2018-06-28T22:24:15.287Z,1.80
2018-06-28T22:26:43.763Z,1.73
2018-06-28T22:29:12.188Z,1.60
2018-06-28T22:31:40.572Z,1.40
2018-06-28T22:34:09.280Z,1.50
2018-06-28T22:36:37.631Z,1.60
2018-06-28T22:39:08.967Z,1.60
2018-06-28T22:41:37.342Z,1.40
2018-06-28T22:44:05.460Z,1.70
2018-06-28T22:46:34.060Z,1.80
2018-06-28T22:49:02.495Z,1.80
2018-06-28T22:51:30.966Z,1.60
2018-06-28T22:53:59.065Z,1.60
2018-06-28T22:56:27.501Z,1.82
2018-06-28T22:58:55.909Z,1.87
2018-06-28T23:01:24.366Z,1.87
2018-06-28T23:03:52.940Z,1.60
2018-06-28T23:06:21.065Z,1.80
2018-06-28T23:08:49.431Z,1.55
2018-06-28T23:11:17.855Z,1.75
2018-06-28T23:13:46.306Z,1.50
2018-06-28T23:16:15.220Z,1.80
2018-06-28T23:18:43.608Z,1.70
2018-06-28T23:21:12.976Z,1.85
2018-06-28T23:23:41.345Z,1.50
2018-06-28T23:26:09.735Z,1.70
2018-06-28T23:28:38.179Z,1.70
2018-06-28T23:31:06.612Z,1.50
2018-06-28T23:33:35.013Z,1.72
2018-06-28T23:36:03.413Z,1.45
2018-06-28T23:38:31.800Z,1.90
2018-06-28T23:41:00.171Z,1.90
2018-06-28T23:43:28.274Z,1.67
2018-06-28T23:45:56.684Z,1.90
2018-06-28T23:48:25.050Z,1.75
2018-06-28T23:50:53.502Z,2.00
2018-06-28T23:53:21.910Z,1.50
2018-06-28T23:55:50.305Z,1.80
2018-06-28T23:58:18.900Z,1.60
